sensor_id;sensor_type;location;lat;lon;timestamp;P1;durP1;ratioP1;P2;durP2;ratioP2
7759;SDS011;3924;48.830;9.262;2022-12-24T00:01:33;3.27;;;1.00;;
7759;SDS011;3924;48.830;9.262;2022-12-24T00:03:59;5.93;;;1.40;;
7759;SDS011;3924;48.830;9.262;2022-12-24T00:06:26;3.97;;;1.30;;
7759;SDS011;3924;48.830;9.262;2022-12-24T00:08:52;1.33;;;0.90;;
7759;SDS011;3924;48.830;9.262;2022-12-24T00:11:19;2.77;;;0.97;;
7759;SDS011;3924;48.830;9.262;2022-12-24T00:13:46;11.63;;;1.57;;
7759;SDS011;3924;48.830;9.262;2022-12-24T00:16:14;4.93;;;0.90;;
7759;SDS011;3924;48.830;9.262;2022-12-24T00:18:41;4.00;;;1.00;;
7759;SDS011;3924;48.830;9.262;2022-12-24T00:21:12;3.47;;;1.00;;
7759;SDS011;3924;48.830;9.262;2022-12-24T00:23:40;6.97;;;1.40;;
7759;SDS011;3924;48.830;9.262;2022-12-24T00:26:06;2.93;;;1.40;;
7759;SDS011;3924;48.830;9.262;2022-12-24T00:28:33;6.43;;;1.77;;
7759;SDS011;3924;48.830;9.262;2022-12-24T00:31:05;3.93;;;1.43;;
7759;SDS011;3924;48.830;9.262;2022-12-24T00:33:36;3.33;;;1.23;;
7759;SDS011;3924;48.830;9.262;2022-12-24T00:36:02;1.90;;;1.10;;
7759;SDS011;3924;48.830;9.262;2022-12-24T00:38:29;3.60;;;1.40;;
7759;SDS011;3924;48.830;9.262;2022-12-24T00:40:59;2.63;;;1.03;;
7759;SDS011;3924;48.830;9.262;2022-12-24T00:43:27;3.97;;;1.10;;
7759;SDS011;3924;48.830;9.262;2022-12-24T00:45:54;3.03;;;1.10;;
7759;SDS011;3924;48.830;9.262;2022-12-24T00:48:23;2.53;;;1.10;;
7759;SDS011;3924;48.830;9.262;2022-12-24T00:50:50;1.90;;;0.87;;
7759;SDS011;3924;48.830;9.262;2022-12-24T00:53:17;3.77;;;1.17;;
7759;SDS011;3924;48.830;9.262;2022-12-24T00:55:43;4.43;;;1.00;;
7759;SDS011;3924;48.830;9.262;2022-12-24T00:58:10;2.43;;;1.40;;
7759;SDS011;3924;48.830;9.262;2022-12-24T01:00:36;3.63;;;1.27;;
7759;SDS011;3924;48.830;9.262;2022-12-24T01:03:03;4.40;;;1.27;;
7759;SDS011;3924;48.830;9.262;2022-12-24T01:05:29;4.00;;;1.57;;
7759;SDS011;3924;48.830;9.262;2022-12-24T01:07:56;4.70;;;1.77;;
7759;SDS011;3924;48.830;9.262;2022-12-24T01:10:22;2.43;;;1.20;;
7759;SDS011;3924;48.830;9.262;2022-12-24T01:12:49;5.60;;;2.20;;
7759;SDS011;3924;48.830;9.262;2022-12-24T01:15:15;3.03;;;1.23;;
7759;SDS011;3924;48.830;9.262;2022-12-24T01:17:43;4.10;;;1.47;;
7759;SDS011;3924;48.830;9.262;2022-12-24T01:20:13;1.73;;;1.20;;
7759;SDS011;3924;48.830;9.262;2022-12-24T01:22:41;4.87;;;1.10;;
7759;SDS011;3924;48.830;9.262;2022-12-24T01:25:08;3.93;;;1.10;;
7759;SDS011;3924;48.830;9.262;2022-12-24T01:27:35;5.27;;;1.87;;
7759;SDS011;3924;48.830;9.262;2022-12-24T01:30:03;3.37;;;1.40;;
7759;SDS011;3924;48.830;9.262;2022-12-24T01:32:31;5.27;;;2.00;;
7759;SDS011;3924;48.830;9.262;2022-12-24T01:34:57;2.63;;;1.60;;
7759;SDS011;3924;48.830;9.262;2022-12-24T01:37:25;3.10;;;2.40;;
7759;SDS011;3924;48.830;9.262;2022-12-24T01:39:51;6.23;;;1.70;;
7759;SDS011;3924;48.830;9.262;2022-12-24T01:42:38;2.27;;;1.70;;
7759;SDS011;3924;48.830;9.262;2022-12-24T01:48:00;5.50;;;1.97;;
7759;SDS011;3924;48.830;9.262;2022-12-24T01:50:27;8.30;;;2.40;;
7759;SDS011;3924;48.830;9.262;2022-12-24T01:52:54;4.60;;;1.77;;
7759;SDS011;3924;48.830;9.262;2022-12-24T01:55:21;4.50;;;1.47;;
7759;SDS011;3924;48.830;9.262;2022-12-24T01:57:50;7.67;;;1.73;;
7759;SDS011;3924;48.830;9.262;2022-12-24T02:00:21;6.10;;;1.90;;
7759;SDS011;3924;48.830;9.262;2022-12-24T02:02:48;8.13;;;2.40;;
7759;SDS011;3924;48.830;9.262;2022-12-24T02:05:19;6.73;;;1.93;;
7759;SDS011;3924;48.830;9.262;2022-12-24T02:07:53;4.17;;;1.53;;
7759;SDS011;3924;48.830;9.262;2022-12-24T02:10:21;5.17;;;1.47;;
7759;SDS011;3924;48.830;9.262;2022-12-24T02:12:48;4.37;;;1.80;;
7759;SDS011;3924;48.830;9.262;2022-12-24T02:15:16;6.80;;;1.67;;
7759;SDS011;3924;48.830;9.262;2022-12-24T02:21:05;6.53;;;1.57;;
7759;SDS011;3924;48.830;9.262;2022-12-24T02:29:23;5.03;;;1.70;;
7759;SDS011;3924;48.830;9.262;2022-12-24T02:31:59;8.23;;;2.00;;
7759;SDS011;3924;48.830;9.262;2022-12-24T02:34:34;5.17;;;1.63;;
7759;SDS011;3924;48.830;9.262;2022-12-24T02:37:06;6.00;;;1.53;;
7759;SDS011;3924;48.830;9.262;2022-12-24T02:39:45;5.87;;;1.37;;
7759;SDS011;3924;48.830;9.262;2022-12-24T02:42:17;5.67;;;1.37;;
7759;SDS011;3924;48.830;9.262;2022-12-24T02:44:51;4.83;;;1.13;;
7759;SDS011;3924;48.830;9.262;2022-12-24T02:47:22;5.20;;;1.20;;
7759;SDS011;3924;48.830;9.262;2022-12-24T02:49:51;4.33;;;1.33;;
7759;SDS011;3924;48.830;9.262;2022-12-24T02:58:55;3.47;;;1.57;;
7759;SDS011;3924;48.830;9.262;2022-12-24T03:08:03;6.33;;;2.00;;
7759;SDS011;3924;48.830;9.262;2022-12-24T03:11:27;3.93;;;1.20;;
7759;SDS011;3924;48.830;9.262;2022-12-24T03:14:00;5.53;;;1.30;;
7759;SDS011;3924;48.830;9.262;2022-12-24T03:16:41;6.30;;;1.73;;
7759;SDS011;3924;48.830;9.262;2022-12-24T03:19:18;3.53;;;1.53;;
7759;SDS011;3924;48.830;9.262;2022-12-24T03:21:56;7.27;;;1.67;;
7759;SDS011;3924;48.830;9.262;2022-12-24T03:24:32;6.07;;;1.50;;
7759;SDS011;3924;48.830;9.262;2022-12-24T03:30:15;3.17;;;1.47;;
7759;SDS011;3924;48.830;9.262;2022-12-24T03:32:57;6.83;;;1.30;;
7759;SDS011;3924;48.830;9.262;2022-12-24T03:35:41;3.07;;;1.30;;
7759;SDS011;3924;48.830;9.262;2022-12-24T03:38:14;3.80;;;1.40;;
7759;SDS011;3924;48.830;9.262;2022-12-24T03:45:35;4.63;;;1.60;;
7759;SDS011;3924;48.830;9.262;2022-12-24T03:48:23;6.83;;;1.77;;
7759;SDS011;3924;48.830;9.262;2022-12-24T03:51:17;4.57;;;1.20;;
7759;SDS011;3924;48.830;9.262;2022-12-24T03:53:45;5.17;;;1.27;;
7759;SDS011;3924;48.830;9.262;2022-12-24T03:56:12;3.63;;;1.40;;
7759;SDS011;3924;48.830;9.262;2022-12-24T03:58:38;2.93;;;1.20;;
7759;SDS011;3924;48.830;9.262;2022-12-24T04:01:05;2.87;;;1.23;;
7759;SDS011;3924;48.830;9.262;2022-12-24T04:03:31;4.50;;;1.50;;
7759;SDS011;3924;48.830;9.262;2022-12-24T04:06:20;5.47;;;1.60;;
7759;SDS011;3924;48.830;9.262;2022-12-24T04:08:45;6.70;;;1.57;;
7759;SDS011;3924;48.830;9.262;2022-12-24T04:11:12;3.33;;;1.40;;
7759;SDS011;3924;48.830;9.262;2022-12-24T04:13:40;4.27;;;1.73;;
7759;SDS011;3924;48.830;9.262;2022-12-24T04:16:08;2.53;;;2.23;;
7759;SDS011;3924;48.830;9.262;2022-12-24T04:18:37;5.67;;;1.53;;
7759;SDS011;3924;48.830;9.262;2022-12-24T04:21:04;5.73;;;1.57;;
7759;SDS011;3924;48.830;9.262;2022-12-24T04:23:32;2.27;;;1.50;;
7759;SDS011;3924;48.830;9.262;2022-12-24T04:26:00;6.87;;;1.50;;
7759;SDS011;3924;48.830;9.262;2022-12-24T04:28:29;4.93;;;2.17;;
7759;SDS011;3924;48.830;9.262;2022-12-24T04:30:59;2.17;;;1.43;;
7759;SDS011;3924;48.830;9.262;2022-12-24T04:33:27;5.67;;;1.43;;
7759;SDS011;3924;48.830;9.262;2022-12-24T04:35:56;5.03;;;1.60;;
7759;SDS011;3924;48.830;9.262;2022-12-24T04:38:23;3.83;;;1.40;;
7759;SDS011;3924;48.830;9.262;2022-12-24T04:43:48;5.07;;;1.30;;
7759;SDS011;3924;48.830;9.262;2022-12-24T04:46:19;2.80;;;1.00;;
7759;SDS011;3924;48.830;9.262;2022-12-24T04:48:55;4.73;;;1.73;;
7759;SDS011;3924;48.830;9.262;2022-12-24T04:51:24;2.07;;;1.20;;
7759;SDS011;3924;48.830;9.262;2022-12-24T04:54:02;5.93;;;1.30;;
7759;SDS011;3924;48.830;9.262;2022-12-24T04:56:35;2.90;;;1.50;;
7759;SDS011;3924;48.830;9.262;2022-12-24T04:59:04;5.30;;;1.43;;
7759;SDS011;3924;48.830;9.262;2022-12-24T05:01:45;5.33;;;1.60;;
7759;SDS011;3924;48.830;9.262;2022-12-24T05:04:16;5.47;;;1.67;;
7759;SDS011;3924;48.830;9.262;2022-12-24T05:06:46;2.73;;;1.10;;
7759;SDS011;3924;48.830;9.262;2022-12-24T05:09:17;5.30;;;1.60;;
7759;SDS011;3924;48.830;9.262;2022-12-24T05:11:49;6.57;;;1.83;;
7759;SDS011;3924;48.830;9.262;2022-12-24T05:14:20;6.80;;;1.37;;
7759;SDS011;3924;48.830;9.262;2022-12-24T05:16:54;2.07;;;1.23;;
7759;SDS011;3924;48.830;9.262;2022-12-24T05:19:32;3.83;;;1.63;;
7759;SDS011;3924;48.830;9.262;2022-12-24T05:22:02;6.30;;;1.83;;
7759;SDS011;3924;48.830;9.262;2022-12-24T05:31:59;4.97;;;1.47;;
7759;SDS011;3924;48.830;9.262;2022-12-24T05:34:54;6.27;;;1.83;;
7759;SDS011;3924;48.830;9.262;2022-12-24T05:37:43;3.47;;;2.20;;
7759;SDS011;3924;48.830;9.262;2022-12-24T05:41:00;3.73;;;1.40;;
7759;SDS011;3924;48.830;9.262;2022-12-24T05:44:04;4.27;;;1.93;;
7759;SDS011;3924;48.830;9.262;2022-12-24T05:47:03;2.63;;;1.67;;
7759;SDS011;3924;48.830;9.262;2022-12-24T05:49:50;2.13;;;1.50;;
7759;SDS011;3924;48.830;9.262;2022-12-24T05:52:16;5.00;;;1.60;;
7759;SDS011;3924;48.830;9.262;2022-12-24T05:54:43;1.67;;;1.23;;
7759;SDS011;3924;48.830;9.262;2022-12-24T05:57:09;2.87;;;1.63;;
7759;SDS011;3924;48.830;9.262;2022-12-24T05:59:35;3.20;;;1.40;;
7759;SDS011;3924;48.830;9.262;2022-12-24T06:02:02;4.20;;;1.60;;
7759;SDS011;3924;48.830;9.262;2022-12-24T06:04:29;9.37;;;1.70;;
7759;SDS011;3924;48.830;9.262;2022-12-24T06:06:55;5.80;;;1.77;;
7759;SDS011;3924;48.830;9.262;2022-12-24T06:09:22;7.23;;;1.60;;
7759;SDS011;3924;48.830;9.262;2022-12-24T06:11:48;6.63;;;1.47;;
7759;SDS011;3924;48.830;9.262;2022-12-24T06:14:15;7.17;;;1.60;;
7759;SDS011;3924;48.830;9.262;2022-12-24T06:16:41;3.57;;;1.37;;
7759;SDS011;3924;48.830;9.262;2022-12-24T06:19:07;1.60;;;1.30;;
7759;SDS011;3924;48.830;9.262;2022-12-24T06:21:34;3.37;;;1.40;;
7759;SDS011;3924;48.830;9.262;2022-12-24T06:24:00;4.47;;;1.20;;
7759;SDS011;3924;48.830;9.262;2022-12-24T06:26:27;3.13;;;1.10;;
7759;SDS011;3924;48.830;9.262;2022-12-24T06:28:53;8.37;;;1.57;;
7759;SDS011;3924;48.830;9.262;2022-12-24T06:31:20;5.07;;;1.53;;
7759;SDS011;3924;48.830;9.262;2022-12-24T06:33:48;4.83;;;1.07;;
7759;SDS011;3924;48.830;9.262;2022-12-24T06:36:17;8.23;;;1.43;;
7759;SDS011;3924;48.830;9.262;2022-12-24T06:38:47;3.47;;;1.70;;
7759;SDS011;3924;48.830;9.262;2022-12-24T06:41:15;4.30;;;1.60;;
7759;SDS011;3924;48.830;9.262;2022-12-24T06:43:43;5.83;;;1.47;;
7759;SDS011;3924;48.830;9.262;2022-12-24T06:46:12;3.93;;;1.67;;
7759;SDS011;3924;48.830;9.262;2022-12-24T06:48:39;7.87;;;1.43;;
7759;SDS011;3924;48.830;9.262;2022-12-24T06:51:05;6.80;;;3.30;;
7759;SDS011;3924;48.830;9.262;2022-12-24T06:53:32;4.73;;;1.60;;
7759;SDS011;3924;48.830;9.262;2022-12-24T06:56:05;6.70;;;1.80;;
7759;SDS011;3924;48.830;9.262;2022-12-24T06:58:33;3.90;;;1.33;;
7759;SDS011;3924;48.830;9.262;2022-12-24T07:01:01;5.00;;;1.63;;
7759;SDS011;3924;48.830;9.262;2022-12-24T07:03:28;5.10;;;1.47;;
7759;SDS011;3924;48.830;9.262;2022-12-24T07:05:55;4.37;;;1.33;;
7759;SDS011;3924;48.830;9.262;2022-12-24T07:08:21;6.20;;;1.60;;
7759;SDS011;3924;48.830;9.262;2022-12-24T07:10:50;4.83;;;1.23;;
7759;SDS011;3924;48.830;9.262;2022-12-24T07:13:19;8.23;;;2.03;;
7759;SDS011;3924;48.830;9.262;2022-12-24T07:15:46;4.93;;;1.47;;
7759;SDS011;3924;48.830;9.262;2022-12-24T07:18:21;2.37;;;1.40;;
7759;SDS011;3924;48.830;9.262;2022-12-24T07:20:48;2.77;;;1.60;;
7759;SDS011;3924;48.830;9.262;2022-12-24T07:23:14;3.93;;;1.60;;
7759;SDS011;3924;48.830;9.262;2022-12-24T07:25:41;6.73;;;1.37;;
7759;SDS011;3924;48.830;9.262;2022-12-24T07:28:08;4.50;;;1.60;;
7759;SDS011;3924;48.830;9.262;2022-12-24T07:30:34;3.70;;;1.60;;
7759;SDS011;3924;48.830;9.262;2022-12-24T07:33:01;3.70;;;1.20;;
7759;SDS011;3924;48.830;9.262;2022-12-24T07:35:27;7.70;;;1.57;;
7759;SDS011;3924;48.830;9.262;2022-12-24T07:37:54;2.53;;;1.70;;
7759;SDS011;3924;48.830;9.262;2022-12-24T07:40:20;10.27;;;2.03;;
7759;SDS011;3924;48.830;9.262;2022-12-24T07:42:47;7.97;;;1.70;;
7759;SDS011;3924;48.830;9.262;2022-12-24T07:45:13;7.13;;;1.83;;
7759;SDS011;3924;48.830;9.262;2022-12-24T07:47:40;5.07;;;1.53;;
7759;SDS011;3924;48.830;9.262;2022-12-24T07:50:06;4.13;;;1.30;;
7759;SDS011;3924;48.830;9.262;2022-12-24T07:52:33;6.33;;;1.70;;
7759;SDS011;3924;48.830;9.262;2022-12-24T07:54:59;4.30;;;1.63;;
7759;SDS011;3924;48.830;9.262;2022-12-24T07:57:26;4.70;;;1.90;;
7759;SDS011;3924;48.830;9.262;2022-12-24T07:59:52;3.83;;;1.53;;
7759;SDS011;3924;48.830;9.262;2022-12-24T08:02:19;5.43;;;1.93;;
7759;SDS011;3924;48.830;9.262;2022-12-24T08:04:46;6.77;;;1.50;;
7759;SDS011;3924;48.830;9.262;2022-12-24T08:07:12;5.43;;;1.50;;
7759;SDS011;3924;48.830;9.262;2022-12-24T08:09:38;4.63;;;1.90;;
7759;SDS011;3924;48.830;9.262;2022-12-24T08:12:05;3.57;;;2.00;;
7759;SDS011;3924;48.830;9.262;2022-12-24T08:14:32;5.17;;;2.10;;
7759;SDS011;3924;48.830;9.262;2022-12-24T08:16:58;8.43;;;2.13;;
7759;SDS011;3924;48.830;9.262;2022-12-24T08:19:25;3.23;;;1.40;;
7759;SDS011;3924;48.830;9.262;2022-12-24T08:21:51;3.53;;;1.70;;
7759;SDS011;3924;48.830;9.262;2022-12-24T08:24:17;4.07;;;1.73;;
7759;SDS011;3924;48.830;9.262;2022-12-24T08:26:44;6.30;;;2.00;;
7759;SDS011;3924;48.830;9.262;2022-12-24T08:29:10;3.30;;;1.63;;
7759;SDS011;3924;48.830;9.262;2022-12-24T08:31:37;4.47;;;2.60;;
7759;SDS011;3924;48.830;9.262;2022-12-24T08:34:04;6.90;;;2.97;;
7759;SDS011;3924;48.830;9.262;2022-12-24T08:36:32;4.93;;;2.10;;
7759;SDS011;3924;48.830;9.262;2022-12-24T08:38:59;4.67;;;1.93;;
7759;SDS011;3924;48.830;9.262;2022-12-24T08:41:29;5.73;;;1.97;;
7759;SDS011;3924;48.830;9.262;2022-12-24T08:43:56;5.30;;;1.60;;
7759;SDS011;3924;48.830;9.262;2022-12-24T08:46:23;5.73;;;1.90;;
7759;SDS011;3924;48.830;9.262;2022-12-24T08:48:50;4.13;;;2.20;;
7759;SDS011;3924;48.830;9.262;2022-12-24T08:51:16;5.63;;;1.73;;
7759;SDS011;3924;48.830;9.262;2022-12-24T08:53:44;6.47;;;1.70;;
7759;SDS011;3924;48.830;9.262;2022-12-24T08:56:11;5.53;;;1.70;;
7759;SDS011;3924;48.830;9.262;2022-12-24T08:58:38;8.50;;;2.00;;
7759;SDS011;3924;48.830;9.262;2022-12-24T09:01:12;8.23;;;1.83;;
7759;SDS011;3924;48.830;9.262;2022-12-24T09:03:43;3.90;;;1.70;;
7759;SDS011;3924;48.830;9.262;2022-12-24T09:06:11;6.83;;;1.90;;
7759;SDS011;3924;48.830;9.262;2022-12-24T09:08:38;5.00;;;1.90;;
7759;SDS011;3924;48.830;9.262;2022-12-24T09:11:09;6.60;;;2.07;;
7759;SDS011;3924;48.830;9.262;2022-12-24T09:13:39;4.53;;;1.83;;
7759;SDS011;3924;48.830;9.262;2022-12-24T09:16:06;4.87;;;2.00;;
7759;SDS011;3924;48.830;9.262;2022-12-24T09:18:34;5.33;;;2.07;;
7759;SDS011;3924;48.830;9.262;2022-12-24T09:21:01;4.67;;;1.83;;
7759;SDS011;3924;48.830;9.262;2022-12-24T09:23:37;9.10;;;2.77;;
7759;SDS011;3924;48.830;9.262;2022-12-24T09:26:14;6.00;;;2.60;;
7759;SDS011;3924;48.830;9.262;2022-12-24T09:28:46;10.33;;;2.53;;
7759;SDS011;3924;48.830;9.262;2022-12-24T09:31:13;4.00;;;2.03;;
7759;SDS011;3924;48.830;9.262;2022-12-24T09:33:41;3.93;;;2.40;;
7759;SDS011;3924;48.830;9.262;2022-12-24T09:36:09;6.90;;;2.30;;
7759;SDS011;3924;48.830;9.262;2022-12-24T09:38:36;5.30;;;2.37;;
7759;SDS011;3924;48.830;9.262;2022-12-24T09:41:14;4.87;;;1.70;;
7759;SDS011;3924;48.830;9.262;2022-12-24T09:43:45;9.50;;;2.13;;
7759;SDS011;3924;48.830;9.262;2022-12-24T09:46:17;6.93;;;1.80;;
7759;SDS011;3924;48.830;9.262;2022-12-24T09:48:50;7.57;;;1.87;;
7759;SDS011;3924;48.830;9.262;2022-12-24T09:54:09;8.87;;;1.97;;
7759;SDS011;3924;48.830;9.262;2022-12-24T09:56:43;4.73;;;1.80;;
7759;SDS011;3924;48.830;9.262;2022-12-24T09:59:15;9.20;;;3.07;;
7759;SDS011;3924;48.830;9.262;2022-12-24T10:01:45;7.70;;;1.90;;
7759;SDS011;3924;48.830;9.262;2022-12-24T10:04:15;12.87;;;2.33;;
7759;SDS011;3924;48.830;9.262;2022-12-24T10:10:26;4.03;;;1.70;;
7759;SDS011;3924;48.830;9.262;2022-12-24T10:23:22;5.33;;;2.07;;
7759;SDS011;3924;48.830;9.262;2022-12-24T10:26:53;8.33;;;1.87;;
7759;SDS011;3924;48.830;9.262;2022-12-24T10:29:39;4.13;;;1.67;;
7759;SDS011;3924;48.830;9.262;2022-12-24T10:32:32;10.27;;;2.17;;
7759;SDS011;3924;48.830;9.262;2022-12-24T10:36:05;2.07;;;1.40;;
7759;SDS011;3924;48.830;9.262;2022-12-24T10:38:52;4.73;;;1.90;;
7759;SDS011;3924;48.830;9.262;2022-12-24T10:41:25;9.77;;;2.13;;
7759;SDS011;3924;48.830;9.262;2022-12-24T10:44:32;3.27;;;1.70;;
7759;SDS011;3924;48.830;9.262;2022-12-24T10:47:12;7.43;;;1.73;;
7759;SDS011;3924;48.830;9.262;2022-12-24T10:53:03;5.97;;;1.80;;
7759;SDS011;3924;48.830;9.262;2022-12-24T10:56:16;7.53;;;1.70;;
7759;SDS011;3924;48.830;9.262;2022-12-24T10:58:53;3.33;;;1.50;;
7759;SDS011;3924;48.830;9.262;2022-12-24T11:04:21;5.87;;;1.60;;
7759;SDS011;3924;48.830;9.262;2022-12-24T11:09:31;7.57;;;1.73;;
7759;SDS011;3924;48.830;9.262;2022-12-24T11:12:03;7.03;;;2.60;;
7759;SDS011;3924;48.830;9.262;2022-12-24T11:14:37;8.20;;;2.10;;
7759;SDS011;3924;48.830;9.262;2022-12-24T11:17:05;7.77;;;2.30;;
7759;SDS011;3924;48.830;9.262;2022-12-24T11:19:32;7.50;;;1.80;;
7759;SDS011;3924;48.830;9.262;2022-12-24T11:22:06;5.63;;;2.20;;
7759;SDS011;3924;48.830;9.262;2022-12-24T11:24:43;5.93;;;1.90;;
7759;SDS011;3924;48.830;9.262;2022-12-24T11:27:49;6.90;;;2.10;;
7759;SDS011;3924;48.830;9.262;2022-12-24T11:32:43;3.37;;;1.60;;
7759;SDS011;3924;48.830;9.262;2022-12-24T11:35:15;8.00;;;1.97;;
7759;SDS011;3924;48.830;9.262;2022-12-24T11:40:39;5.60;;;1.47;;
7759;SDS011;3924;48.830;9.262;2022-12-24T11:43:14;11.33;;;2.10;;
7759;SDS011;3924;48.830;9.262;2022-12-24T11:45:49;5.33;;;2.00;;
7759;SDS011;3924;48.830;9.262;2022-12-24T11:48:28;8.30;;;1.93;;
7759;SDS011;3924;48.830;9.262;2022-12-24T11:50:57;6.57;;;2.33;;
7759;SDS011;3924;48.830;9.262;2022-12-24T11:54:13;4.17;;;1.83;;
7759;SDS011;3924;48.830;9.262;2022-12-24T11:56:32;3.87;;;2.17;;
7759;SDS011;3924;48.830;9.262;2022-12-24T11:59:11;5.27;;;2.00;;
7759;SDS011;3924;48.830;9.262;2022-12-24T12:02:16;5.10;;;1.60;;
7759;SDS011;3924;48.830;9.262;2022-12-24T12:05:04;5.70;;;2.27;;
7759;SDS011;3924;48.830;9.262;2022-12-24T12:07:35;8.13;;;2.43;;
7759;SDS011;3924;48.830;9.262;2022-12-24T12:12:37;7.03;;;2.10;;
7759;SDS011;3924;48.830;9.262;2022-12-24T12:20:17;7.30;;;2.77;;
7759;SDS011;3924;48.830;9.262;2022-12-24T12:23:09;9.73;;;2.27;;
7759;SDS011;3924;48.830;9.262;2022-12-24T12:25:39;7.57;;;2.23;;
7759;SDS011;3924;48.830;9.262;2022-12-24T12:28:14;6.33;;;2.23;;
7759;SDS011;3924;48.830;9.262;2022-12-24T12:30:47;8.03;;;2.10;;
7759;SDS011;3924;48.830;9.262;2022-12-24T12:33:26;9.93;;;2.73;;
7759;SDS011;3924;48.830;9.262;2022-12-24T12:35:59;7.70;;;3.93;;
7759;SDS011;3924;48.830;9.262;2022-12-24T12:38:27;8.90;;;2.73;;
7759;SDS011;3924;48.830;9.262;2022-12-24T12:40:58;9.60;;;2.97;;
7759;SDS011;3924;48.830;9.262;2022-12-24T12:46:05;8.60;;;2.53;;
7759;SDS011;3924;48.830;9.262;2022-12-24T12:48:54;14.37;;;5.53;;
7759;SDS011;3924;48.830;9.262;2022-12-24T12:51:53;17.10;;;3.97;;
7759;SDS011;3924;48.830;9.262;2022-12-24T12:54:28;13.40;;;3.00;;
7759;SDS011;3924;48.830;9.262;2022-12-24T12:57:07;8.03;;;2.60;;
7759;SDS011;3924;48.830;9.262;2022-12-24T13:02:49;9.70;;;2.97;;
7759;SDS011;3924;48.830;9.262;2022-12-24T13:19:14;11.87;;;3.07;;
7759;SDS011;3924;48.830;9.262;2022-12-24T13:22:14;10.47;;;2.73;;
7759;SDS011;3924;48.830;9.262;2022-12-24T13:28:41;5.07;;;2.30;;
7759;SDS011;3924;48.830;9.262;2022-12-24T13:31:31;4.10;;;2.33;;
7759;SDS011;3924;48.830;9.262;2022-12-24T13:37:22;8.57;;;2.57;;
7759;SDS011;3924;48.830;9.262;2022-12-24T13:49:16;10.33;;;2.67;;
7759;SDS011;3924;48.830;9.262;2022-12-24T13:52:33;11.37;;;2.33;;
7759;SDS011;3924;48.830;9.262;2022-12-24T13:55:29;8.87;;;2.10;;
7759;SDS011;3924;48.830;9.262;2022-12-24T13:58:18;9.93;;;2.67;;
7759;SDS011;3924;48.830;9.262;2022-12-24T14:01:07;8.20;;;2.43;;
7759;SDS011;3924;48.830;9.262;2022-12-24T14:04:01;14.20;;;3.27;;
7759;SDS011;3924;48.830;9.262;2022-12-24T14:06:39;6.60;;;2.57;;
7759;SDS011;3924;48.830;9.262;2022-12-24T14:09:14;11.83;;;2.87;;
7759;SDS011;3924;48.830;9.262;2022-12-24T14:19:55;14.87;;;3.20;;
7759;SDS011;3924;48.830;9.262;2022-12-24T14:22:33;13.60;;;5.03;;
7759;SDS011;3924;48.830;9.262;2022-12-24T14:25:14;9.00;;;3.20;;
7759;SDS011;3924;48.830;9.262;2022-12-24T14:27:44;8.63;;;3.23;;
7759;SDS011;3924;48.830;9.262;2022-12-24T14:32:50;6.93;;;2.90;;
7759;SDS011;3924;48.830;9.262;2022-12-24T14:37:47;13.53;;;3.70;;
7759;SDS011;3924;48.830;9.262;2022-12-24T14:40:25;13.43;;;3.33;;
7759;SDS011;3924;48.830;9.262;2022-12-24T14:45:33;15.00;;;5.33;;
7759;SDS011;3924;48.830;9.262;2022-12-24T14:50:44;10.00;;;4.80;;
7759;SDS011;3924;48.830;9.262;2022-12-24T14:53:22;15.17;;;5.17;;
7759;SDS011;3924;48.830;9.262;2022-12-24T14:56:07;15.07;;;3.97;;
7759;SDS011;3924;48.830;9.262;2022-12-24T14:58:38;13.83;;;4.57;;
7759;SDS011;3924;48.830;9.262;2022-12-24T15:03:59;10.93;;;4.60;;
7759;SDS011;3924;48.830;9.262;2022-12-24T15:06:48;12.93;;;4.07;;
7759;SDS011;3924;48.830;9.262;2022-12-24T15:09:21;10.20;;;4.13;;
7759;SDS011;3924;48.830;9.262;2022-12-24T15:11:55;9.77;;;4.20;;
7759;SDS011;3924;48.830;9.262;2022-12-24T15:14:25;9.87;;;3.47;;
7759;SDS011;3924;48.830;9.262;2022-12-24T15:16:56;14.10;;;4.27;;
7759;SDS011;3924;48.830;9.262;2022-12-24T15:19:36;14.17;;;4.67;;
7759;SDS011;3924;48.830;9.262;2022-12-24T15:22:07;9.63;;;4.03;;
7759;SDS011;3924;48.830;9.262;2022-12-24T15:24:46;10.30;;;5.20;;
7759;SDS011;3924;48.830;9.262;2022-12-24T15:27:14;11.93;;;4.30;;
7759;SDS011;3924;48.830;9.262;2022-12-24T15:29:45;10.23;;;3.57;;
7759;SDS011;3924;48.830;9.262;2022-12-24T15:32:15;10.70;;;3.97;;
7759;SDS011;3924;48.830;9.262;2022-12-24T15:34:44;10.90;;;4.33;;
7759;SDS011;3924;48.830;9.262;2022-12-24T15:37:17;16.67;;;5.70;;
7759;SDS011;3924;48.830;9.262;2022-12-24T15:42:34;14.13;;;5.17;;
7759;SDS011;3924;48.830;9.262;2022-12-24T15:45:13;14.93;;;4.40;;
7759;SDS011;3924;48.830;9.262;2022-12-24T15:47:53;13.83;;;4.80;;
7759;SDS011;3924;48.830;9.262;2022-12-24T15:53:03;8.43;;;4.67;;
7759;SDS011;3924;48.830;9.262;2022-12-24T15:55:58;12.47;;;4.83;;
7759;SDS011;3924;48.830;9.262;2022-12-24T15:58:33;11.47;;;4.30;;
7759;SDS011;3924;48.830;9.262;2022-12-24T16:03:39;11.97;;;5.03;;
7759;SDS011;3924;48.830;9.262;2022-12-24T16:06:07;13.47;;;4.73;;
7759;SDS011;3924;48.830;9.262;2022-12-24T16:08:37;8.17;;;4.40;;
7759;SDS011;3924;48.830;9.262;2022-12-24T16:11:12;13.77;;;3.87;;
7759;SDS011;3924;48.830;9.262;2022-12-24T16:16:20;7.10;;;3.70;;
7759;SDS011;3924;48.830;9.262;2022-12-24T16:18:58;10.60;;;3.77;;
7759;SDS011;3924;48.830;9.262;2022-12-24T16:23:56;7.87;;;4.10;;
7759;SDS011;3924;48.830;9.262;2022-12-24T16:26:34;11.50;;;4.17;;
7759;SDS011;3924;48.830;9.262;2022-12-24T16:29:01;10.47;;;4.90;;
7759;SDS011;3924;48.830;9.262;2022-12-24T16:31:29;11.83;;;4.83;;
7759;SDS011;3924;48.830;9.262;2022-12-24T16:33:58;13.57;;;5.40;;
7759;SDS011;3924;48.830;9.262;2022-12-24T16:36:27;14.30;;;5.30;;
7759;SDS011;3924;48.830;9.262;2022-12-24T16:38:55;15.30;;;5.60;;
7759;SDS011;3924;48.830;9.262;2022-12-24T16:41:53;14.10;;;5.63;;
7759;SDS011;3924;48.830;9.262;2022-12-24T16:44:39;7.10;;;4.43;;
7759;SDS011;3924;48.830;9.262;2022-12-24T16:47:09;11.97;;;5.93;;
7759;SDS011;3924;48.830;9.262;2022-12-24T16:49:39;11.40;;;5.40;;
7759;SDS011;3924;48.830;9.262;2022-12-24T16:52:06;12.10;;;4.53;;
7759;SDS011;3924;48.830;9.262;2022-12-24T16:54:39;9.87;;;4.30;;
7759;SDS011;3924;48.830;9.262;2022-12-24T16:57:07;11.10;;;5.03;;
7759;SDS011;3924;48.830;9.262;2022-12-24T16:59:35;10.47;;;4.53;;
7759;SDS011;3924;48.830;9.262;2022-12-24T17:02:03;13.17;;;4.97;;
7759;SDS011;3924;48.830;9.262;2022-12-24T17:04:39;12.23;;;4.30;;
7759;SDS011;3924;48.830;9.262;2022-12-24T17:07:06;12.43;;;4.90;;
7759;SDS011;3924;48.830;9.262;2022-12-24T17:09:33;13.53;;;5.00;;
7759;SDS011;3924;48.830;9.262;2022-12-24T17:11:59;12.33;;;4.60;;
7759;SDS011;3924;48.830;9.262;2022-12-24T17:14:26;10.53;;;5.13;;
7759;SDS011;3924;48.830;9.262;2022-12-24T17:16:52;12.40;;;4.83;;
7759;SDS011;3924;48.830;9.262;2022-12-24T17:19:19;14.00;;;5.90;;
7759;SDS011;3924;48.830;9.262;2022-12-24T17:21:46;19.60;;;7.13;;
7759;SDS011;3924;48.830;9.262;2022-12-24T17:24:12;18.97;;;6.97;;
7759;SDS011;3924;48.830;9.262;2022-12-24T17:26:39;16.77;;;6.07;;
7759;SDS011;3924;48.830;9.262;2022-12-24T17:29:07;9.90;;;5.47;;
7759;SDS011;3924;48.830;9.262;2022-12-24T17:31:34;18.27;;;6.30;;
7759;SDS011;3924;48.830;9.262;2022-12-24T17:34:03;12.20;;;6.30;;
7759;SDS011;3924;48.830;9.262;2022-12-24T17:36:30;14.70;;;7.03;;
7759;SDS011;3924;48.830;9.262;2022-12-24T17:38:56;13.93;;;6.50;;
7759;SDS011;3924;48.830;9.262;2022-12-24T17:41:23;16.47;;;8.33;;
7759;SDS011;3924;48.830;9.262;2022-12-24T17:43:49;19.13;;;7.83;;
7759;SDS011;3924;48.830;9.262;2022-12-24T17:46:16;9.93;;;5.93;;
7759;SDS011;3924;48.830;9.262;2022-12-24T17:48:48;16.43;;;5.97;;
7759;SDS011;3924;48.830;9.262;2022-12-24T17:51:16;12.97;;;5.70;;
7759;SDS011;3924;48.830;9.262;2022-12-24T17:53:44;10.83;;;5.93;;
7759;SDS011;3924;48.830;9.262;2022-12-24T17:56:11;17.67;;;6.77;;
7759;SDS011;3924;48.830;9.262;2022-12-24T17:58:39;14.83;;;6.00;;
7759;SDS011;3924;48.830;9.262;2022-12-24T18:01:14;13.07;;;6.07;;
7759;SDS011;3924;48.830;9.262;2022-12-24T18:03:43;12.20;;;5.80;;
7759;SDS011;3924;48.830;9.262;2022-12-24T18:06:10;13.63;;;6.93;;
7759;SDS011;3924;48.830;9.262;2022-12-24T18:08:38;12.57;;;6.37;;
7759;SDS011;3924;48.830;9.262;2022-12-24T18:11:19;10.87;;;6.07;;
7759;SDS011;3924;48.830;9.262;2022-12-24T18:13:48;18.17;;;6.43;;
7759;SDS011;3924;48.830;9.262;2022-12-24T18:16:22;13.70;;;6.70;;
7759;SDS011;3924;48.830;9.262;2022-12-24T18:18:51;10.60;;;6.67;;